Time;durP1;ratioP1;P1;durP2;ratioP2;P2;SDS_P1;SDS_P2;PMS_P1;PMS_P2;Temp;Humidity;BMP_temperature;BMP_pressure;BME280_temperature;BME280_humidity;BME280_pressure;Samples;Min_cycle;Max_cycle;Signal;HPM_P1;HPM_P2
2023/06/05 00:00:46;;;;;;;1.75;0.75;;;;;;;9.93;75.90;99192.28;5051036;28;20059;-63
2023/06/05 00:03:17;;;;;;;2.22;0.60;;;;;;;9.64;77.12;99185.34;5061784;28;20060;-60
2023/06/05 00:05:49;;;;;;;1.27;0.50;;;;;;;9.64;78.74;99195.78;5050784;28;20131;-65
2023/06/05 00:08:20;;;;;;;0.70;0.40;;;;;;;9.66;78.02;99196.56;5061335;28;20048;-62
2023/06/05 00:10:50;;;;;;;1.13;0.65;;;;;;;9.60;77.86;99196.75;5051847;28;20061;-61
2023/06/05 00:13:23;;;;;;;0.50;0.50;;;;;;;9.66;77.76;99201.78;5061048;28;20196;-61
2023/06/05 00:15:53;;;;;;;0.60;0.60;;;;;;;9.83;78.90;99201.28;5050457;28;20044;-63
2023/06/05 00:18:24;;;;;;;7.00;0.90;;;;;;;10.12;80.65;99197.78;5061083;28;20743;-65
2023/06/05 00:20:55;;;;;;;0.52;0.50;;;;;;;10.29;78.24;99200.75;5040733;28;20147;-64
2023/06/05 00:23:25;;;;;;;0.50;0.50;;;;;;;10.56;77.57;99198.16;5051646;28;20064;-63
2023/06/05 00:25:56;;;;;;;0.60;0.50;;;;;;;10.80;76.47;99196.44;5040909;28;20086;-62
2023/06/05 00:28:28;;;;;;;1.15;0.40;;;;;;;10.82;75.27;99193.78;5049934;28;20113;-64
2023/06/05 00:30:59;;;;;;;1.85;0.40;;;;;;;10.97;74.78;99193.25;5026465;28;20734;-62
2023/06/05 00:33:30;;;;;;;0.40;0.40;;;;;;;11.25;76.30;99197.50;5044432;28;20092;-66
2023/06/05 00:36:01;;;;;;;0.55;0.50;;;;;;;11.29;74.69;99193.88;5050665;28;20048;-66
2023/06/05 00:38:32;;;;;;;0.45;0.40;;;;;;;11.48;73.09;99200.09;5039437;28;20056;-66
2023/06/05 00:41:03;;;;;;;0.50;0.50;;;;;;;11.64;74.37;99185.56;5051659;28;20200;-64
2023/06/05 00:43:35;;;;;;;0.40;0.40;;;;;;;11.92;71.12;99200.22;5040653;28;20087;-64
2023/06/05 00:46:06;;;;;;;0.90;0.43;;;;;;;12.03;71.30;99195.44;5050821;28;20052;-65
2023/06/05 00:48:39;;;;;;;0.90;0.45;;;;;;;12.04;69.97;99194.53;5040182;28;20066;-63
2023/06/05 00:51:14;;;;;;;2.40;0.70;;;;;;;12.19;72.45;99197.44;5051365;28;20051;-61
2023/06/05 00:53:48;;;;;;;3.00;0.50;;;;;;;12.22;73.45;99165.91;5025212;28;20040;-61
2023/06/05 00:56:20;;;;;;;1.95;0.50;;;;;;;12.56;73.28;99202.03;5046898;28;20056;-64
2023/06/05 00:58:58;;;;;;;0.50;0.45;;;;;;;12.61;71.14;99196.63;5040405;28;20414;-60
2023/06/05 01:01:28;;;;;;;0.40;0.40;;;;;;;12.58;72.46;99196.72;5051204;28;20055;-66
2023/06/05 01:04:00;;;;;;;0.30;0.30;;;;;;;12.73;71.96;99203.97;5029840;28;20168;-62
2023/06/05 01:06:34;;;;;;;1.02;0.50;;;;;;;12.64;72.03;99205.19;5029942;28;20140;-65
2023/06/05 01:09:05;;;;;;;0.75;0.40;;;;;;;12.67;70.88;99210.28;5040905;28;20072;-62
2023/06/05 01:11:42;;;;;;;0.80;0.50;;;;;;;12.49;69.93;99175.22;5029520;28;20053;-62
2023/06/05 01:14:17;;;;;;;3.20;0.60;;;;;;;12.60;67.07;99211.47;5036915;28;20149;-62
2023/06/05 01:16:53;;;;;;;0.93;0.50;;;;;;;11.86;67.85;99101.00;5042475;28;20117;-60
2023/06/05 01:19:25;;;;;;;3.05;0.60;;;;;;;12.32;66.83;99203.88;5059347;28;20052;-63
2023/06/05 01:21:55;;;;;;;0.73;0.40;;;;;;;11.70;66.81;99173.16;5048889;28;20048;-63
2023/06/05 01:24:28;;;;;;;0.40;0.30;;;;;;;11.85;68.99;99203.97;5060184;28;20059;-61
2023/06/05 01:27:09;;;;;;;0.88;0.50;;;;;;;12.01;70.83;99214.75;5049274;28;20070;-60
2023/06/05 01:29:52;;;;;;;0.68;0.50;;;;;;;12.19;71.87;99205.31;5049355;28;20059;-62
2023/06/05 01:32:36;;;;;;;0.40;0.40;;;;;;;12.31;71.56;99210.06;5059126;28;20043;-63
2023/06/05 01:35:16;;;;;;;0.73;0.60;;;;;;;12.16;70.23;99213.28;5023413;28;20118;-63
2023/06/05 01:37:50;;;;;;;2.08;0.47;;;;;;;12.30;72.81;99216.19;5032062;28;20421;-62
2023/06/05 01:40:23;;;;;;;0.40;0.40;;;;;;;12.45;73.05;99220.81;5049386;28;20159;-62
2023/06/05 01:42:56;;;;;;;1.33;0.52;;;;;;;12.49;72.58;99222.41;5030331;28;20063;-62
2023/06/05 01:45:28;;;;;;;3.33;1.20;;;;;;;12.60;72.46;99228.97;5040375;28;20047;-61
2023/06/05 01:47:59;;;;;;;1.90;0.57;;;;;;;12.74;72.41;99218.75;5020228;28;20147;-65
2023/06/05 01:50:35;;;;;;;0.50;0.50;;;;;;;12.88;71.63;99221.66;5025785;28;20057;-61
2023/06/05 01:53:07;;;;;;;0.75;0.50;;;;;;;12.87;71.24;99212.06;5030693;28;20052;-63
2023/06/05 01:55:41;;;;;;;1.27;0.43;;;;;;;12.85;69.59;99223.53;5020636;28;20498;-64
2023/06/05 01:58:12;;;;;;;0.95;0.50;;;;;;;12.95;70.83;99220.50;5030083;28;20193;-62
2023/06/05 02:00:43;;;;;;;0.50;0.50;;;;;;;13.05;70.66;99220.06;5020266;28;20057;-60
2023/06/05 02:03:15;;;;;;;1.50;0.80;;;;;;;13.13;69.88;99215.38;5031291;28;20052;-64
2023/06/05 02:05:46;;;;;;;1.47;0.50;;;;;;;13.12;68.71;99216.28;5021142;28;20484;-63
2023/06/05 02:08:19;;;;;;;1.77;0.50;;;;;;;13.26;69.65;99208.66;5030379;28;20360;-64
2023/06/05 02:10:52;;;;;;;0.50;0.50;;;;;;;13.70;70.15;99208.44;5021063;28;20272;-64
2023/06/05 02:13:24;;;;;;;0.83;0.50;;;;;;;14.31;68.09;99198.59;5031122;28;20383;-60
2023/06/05 02:15:56;;;;;;;0.53;0.50;;;;;;;14.59;67.95;99196.34;5048219;28;21555;-63
2023/06/05 02:18:27;;;;;;;1.90;0.50;;;;;;;14.66;67.26;99205.63;5058624;28;20786;-62
2023/06/05 02:20:57;;;;;;;0.77;0.40;;;;;;;14.41;63.82;99199.84;5029280;28;20283;-63
2023/06/05 02:23:28;;;;;;;1.93;0.40;;;;;;;14.01;65.46;99214.91;5036581;28;20271;-60
2023/06/05 02:26:01;;;;;;;0.50;0.50;;;;;;;13.84;64.95;99196.47;5048228;28;20365;-63
2023/06/05 02:28:31;;;;;;;2.00;0.30;;;;;;;13.81;65.08;99213.22;5048015;28;20290;-63
2023/06/05 02:31:02;;;;;;;2.47;0.53;;;;;;;13.57;64.33;99197.66;5058772;28;20281;-63
2023/06/05 02:33:33;;;;;;;3.47;0.60;;;;;;;13.63;66.04;99207.03;5047994;28;20813;-61
2023/06/05 02:36:03;;;;;;;0.63;0.40;;;;;;;13.95;64.32;99208.19;5059074;28;21570;-59
2023/06/05 02:38:34;;;;;;;2.33;0.50;;;;;;;13.67;61.12;99211.22;5047042;28;20857;-64
2023/06/05 02:41:06;;;;;;;0.93;0.43;;;;;;;13.43;60.84;99209.69;5058198;28;20270;-61
2023/06/05 02:43:37;;;;;;;1.70;0.30;;;;;;;13.23;63.11;99219.28;5047855;28;20318;-60
2023/06/05 02:46:08;;;;;;;1.03;0.40;;;;;;;12.80;59.92;99215.88;5058196;28;20289;-63
2023/06/05 02:48:39;;;;;;;2.17;0.77;;;;;;;12.88;60.11;99218.16;5047411;28;20285;-61
2023/06/05 02:51:11;;;;;;;2.30;0.50;;;;;;;13.21;61.11;99210.63;5059135;28;20532;-63
2023/06/05 02:53:41;;;;;;;2.00;0.40;;;;;;;13.66;61.79;99217.41;5047372;28;20302;-62
2023/06/05 02:56:13;;;;;;;0.30;0.30;;;;;;;14.00;58.22;99205.31;5058039;28;20791;-64
2023/06/05 02:58:45;;;;;;;0.45;0.45;;;;;;;13.72;53.69;99217.09;5047576;28;21057;-60
2023/06/05 03:01:16;;;;;;;2.20;0.40;;;;;;;13.61;56.76;99213.28;5060715;28;20048;-60
2023/06/05 03:03:48;;;;;;;1.60;0.43;;;;;;;13.72;56.28;99216.25;5052006;28;20052;-62
2023/06/05 03:06:18;;;;;;;2.77;0.50;;;;;;;13.68;57.48;99210.31;5061869;28;20378;-61
2023/06/05 03:08:49;;;;;;;0.47;0.40;;;;;;;13.46;54.87;99209.59;5052219;28;20287;-61
2023/06/05 03:11:23;;;;;;;0.30;0.30;;;;;;;13.27;55.81;99205.13;5061932;28;20109;-61
2023/06/05 03:13:54;;;;;;;1.65;0.60;;;;;;;13.32;55.57;99212.81;5051453;28;20502;-61
2023/06/05 03:16:34;;;;;;;0.55;0.40;;;;;;;13.05;55.66;99214.84;5061931;28;20048;-58
2023/06/05 03:19:04;;;;;;;2.17;0.50;;;;;;;13.01;56.76;99208.03;5050240;28;20056;-60
2023/06/05 03:21:35;;;;;;;0.30;0.30;;;;;;;13.37;56.62;99222.16;5051071;28;20036;-63
2023/06/05 03:24:07;;;;;;;0.55;0.50;;;;;;;13.63;53.78;99217.53;5062315;28;20105;-64
2023/06/05 03:26:39;;;;;;;1.65;0.40;;;;;;;13.61;54.92;99219.38;5050785;28;20500;-61
2023/06/05 03:29:10;;;;;;;2.20;0.70;;;;;;;13.77;53.81;99209.03;5062170;28;20044;-62
2023/06/05 03:31:42;;;;;;;0.32;0.32;;;;;;;13.96;54.21;99209.03;5050867;28;20298;-59
2023/06/05 03:34:13;;;;;;;0.60;0.50;;;;;;;14.03;53.11;99215.69;5061393;28;20056;-63
2023/06/05 03:36:43;;;;;;;1.63;0.40;;;;;;;13.97;52.42;99213.34;5050254;28;20185;-61
2023/06/05 03:39:14;;;;;;;0.30;0.30;;;;;;;14.10;56.67;99206.56;5061704;28;20335;-62
2023/06/05 03:41:46;;;;;;;0.40;0.40;;;;;;;14.34;57.68;99203.72;5028875;28;20352;-62
2023/06/05 03:44:17;;;;;;;0.40;0.40;;;;;;;14.70;57.50;99200.22;5058233;28;20301;-61
2023/06/05 03:46:48;;;;;;;0.53;0.40;;;;;;;15.01;60.16;99205.63;5050877;28;20335;-62
2023/06/05 03:49:20;;;;;;;0.57;0.40;;;;;;;15.13;57.93;99208.56;5061693;28;20289;-62
2023/06/05 03:51:51;;;;;;;0.60;0.40;;;;;;;14.72;53.63;99203.63;5051745;28;20304;-59
2023/06/05 03:54:25;;;;;;;0.60;0.40;;;;;;;14.00;55.97;99202.69;5062159;28;20294;-63
2023/06/05 03:57:00;;;;;;;0.83;0.40;;;;;;;13.92;56.16;99203.03;5041721;28;20309;-63
2023/06/05 03:59:30;;;;;;;0.93;0.40;;;;;;;14.26;55.13;99201.47;5044420;28;20287;-62
2023/06/05 04:02:02;;;;;;;2.33;0.60;;;;;;;14.43;57.03;99203.28;5051948;28;20274;-62
2023/06/05 04:04:32;;;;;;;0.40;0.40;;;;;;;14.52;54.17;99194.91;5041663;28;20493;-64
2023/06/05 04:07:03;;;;;;;0.57;0.40;;;;;;;14.86;57.77;99193.25;5051577;28;20289;-61
2023/06/05 04:09:33;;;;;;;0.50;0.50;;;;;;;14.83;56.64;99175.00;5041408;28;20336;-60
2023/06/05 04:12:06;;;;;;;0.40;0.30;;;;;;;15.30;57.85;99190.06;5051439;28;20283;-62
2023/06/05 04:14:38;;;;;;;1.23;0.50;;;;;;;15.72;57.97;99186.09;5041468;28;20290;-62
2023/06/05 04:17:10;;;;;;;2.13;0.60;;;;;;;16.14;55.53;99192.56;5051440;28;20278;-63
2023/06/05 04:19:41;;;;;;;0.70;0.43;;;;;;;16.54;56.21;99196.41;5040516;28;20395;-62
2023/06/05 04:22:11;;;;;;;0.50;0.43;;;;;;;16.54;52.76;99195.56;5051712;28;20397;-62
2023/06/05 04:24:42;;;;;;;0.50;0.40;;;;;;;16.83;54.01;99200.97;5041477;28;20372;-60
2023/06/05 04:27:14;;;;;;;9.33;1.13;;;;;;;17.14;54.95;99200.81;5051216;28;20366;-60
2023/06/05 04:29:45;;;;;;;3.80;0.50;;;;;;;16.83;49.71;99198.34;5040752;28;20290;-59
2023/06/05 04:32:18;;;;;;;1.60;0.40;;;;;;;16.66;51.95;99205.41;5051735;28;20274;-62
2023/06/05 04:34:50;;;;;;;0.63;0.40;;;;;;;16.47;49.26;99179.25;5040100;28;20287;-60
2023/06/05 04:37:21;;;;;;;1.37;0.50;;;;;;;16.45;49.74;99206.63;5050906;28;20281;-61
2023/06/05 04:39:51;;;;;;;0.93;0.60;;;;;;;16.16;46.70;99206.50;5040825;28;20270;-61
2023/06/05 04:42:24;;;;;;;1.90;0.50;;;;;;;15.62;48.94;99205.94;5051296;28;20321;-60
2023/06/05 04:44:58;;;;;;;0.53;0.53;;;;;;;15.72;50.25;99208.06;5049488;28;20287;-61
2023/06/05 04:47:28;;;;;;;3.40;0.50;;;;;;;15.82;50.01;99205.75;5060004;28;20328;-58
2023/06/05 04:50:03;;;;;;;1.10;0.57;;;;;;;15.78;49.49;99201.59;5049382;28;20282;-61
2023/06/05 04:52:34;;;;;;;2.33;0.60;;;;;;;15.75;50.36;99207.03;5049521;28;20286;-60
2023/06/05 04:55:06;;;;;;;1.03;0.70;;;;;;;15.68;48.97;99205.63;5059574;28;20344;-63
2023/06/05 04:57:38;;;;;;;1.40;0.60;;;;;;;15.33;49.75;99200.47;5049257;28;21007;-59
2023/06/05 05:00:11;;;;;;;5.40;0.77;;;;;;;15.22;48.96;99211.53;5060178;28;20645;-60
2023/06/05 05:02:41;;;;;;;0.70;0.60;;;;;;;15.06;47.95;99213.28;5049209;28;20290;-60
2023/06/05 05:05:14;;;;;;;0.97;0.60;;;;;;;15.02;50.99;99217.81;5059176;28;20290;-60
2023/06/05 05:07:45;;;;;;;1.70;0.60;;;;;;;14.20;47.44;99105.41;5048968;28;20286;-60
2023/06/05 05:10:16;;;;;;;3.27;0.50;;;;;;;14.78;48.12;99213.84;5059461;28;21108;-62
2023/06/05 05:12:48;;;;;;;3.53;0.70;;;;;;;14.75;48.50;99208.72;5049012;28;20282;-61
2023/06/05 05:15:20;;;;;;;5.27;0.90;;;;;;;15.12;51.99;99222.63;5059430;28;20817;-62
2023/06/05 05:17:51;;;;;;;2.07;0.60;;;;;;;15.03;49.45;99193.25;5048806;28;20344;-60
2023/06/05 05:20:22;;;;;;;1.67;0.80;;;;;;;15.36;50.26;99221.34;5059887;28;20324;-60
2023/06/05 05:22:52;;;;;;;2.50;0.70;;;;;;;15.16;48.24;99229.44;5047092;28;20286;-60
2023/06/05 05:25:23;;;;;;;3.37;1.00;;;;;;;14.84;50.03;99234.56;5058694;28;20289;-60
2023/06/05 05:27:55;;;;;;;3.57;0.93;;;;;;;14.80;50.07;99227.75;5049945;28;20282;-60
2023/06/05 05:30:26;;;;;;;1.30;0.80;;;;;;;14.82;50.20;99232.00;5058900;28;20774;-60
2023/06/05 05:32:56;;;;;;;2.97;0.83;;;;;;;14.86;48.06;99233.56;5047380;28;20281;-60
2023/06/05 05:35:27;;;;;;;0.90;0.70;;;;;;;14.73;51.20;99236.88;5059222;28;20297;-61
2023/06/05 05:37:58;;;;;;;3.00;1.73;;;;;;;14.64;49.10;99231.13;5048260;28;20286;-59
2023/06/05 05:40:29;;;;;;;2.27;1.40;;;;;;;14.64;49.96;99233.78;5058014;28;20313;-60
2023/06/05 05:43:02;;;;;;;1.60;0.90;;;;;;;14.63;51.12;99237.34;5026213;28;21133;-58
2023/06/05 05:45:33;;;;;;;1.53;0.90;;;;;;;14.61;51.77;99239.19;5039570;28;20286;-60
2023/06/05 05:48:03;;;;;;;2.60;0.77;;;;;;;14.70;50.56;99231.75;5049785;28;20687;-62
2023/06/05 05:50:34;;;;;;;2.20;0.60;;;;;;;14.53;47.53;99241.34;5039274;28;20286;-60
2023/06/05 05:53:05;;;;;;;1.07;0.77;;;;;;;14.82;50.56;99246.94;5049687;28;20729;-59
2023/06/05 05:55:36;;;;;;;1.43;0.73;;;;;;;14.57;48.47;99211.34;5039371;28;20835;-58
2023/06/05 05:58:08;;;;;;;4.50;0.70;;;;;;;14.64;50.85;99253.94;5049503;28;20283;-60
2023/06/05 06:00:39;;;;;;;2.00;0.80;;;;;;;14.53;50.78;99261.50;5038844;28;20283;-60
2023/06/05 06:03:10;;;;;;;1.33;0.63;;;;;;;14.57;50.53;99258.66;5050268;28;20727;-60
2023/06/05 06:05:41;;;;;;;3.67;1.10;;;;;;;14.53;51.21;99262.38;5029584;28;20300;-59
2023/06/05 06:08:12;;;;;;;1.07;0.70;;;;;;;14.22;50.19;99261.16;5036707;28;20329;-60
2023/06/05 06:10:43;;;;;;;1.63;0.73;;;;;;;14.23;51.77;99270.75;5029192;28;20306;-60
2023/06/05 06:13:16;;;;;;;2.67;0.70;;;;;;;14.35;47.67;99268.47;5046976;28;20328;-59
2023/06/05 06:15:47;;;;;;;1.03;0.70;;;;;;;14.29;47.82;99253.00;5049264;28;20288;-59
2023/06/05 06:18:19;;;;;;;3.23;0.70;;;;;;;14.13;49.48;99263.41;5058481;28;21176;-59
2023/06/05 06:20:50;;;;;;;1.67;0.50;;;;;;;14.18;49.26;99267.50;5048958;28;21142;-60
2023/06/05 06:23:20;;;;;;;1.37;0.57;;;;;;;14.39;48.79;99262.16;5059090;28;20655;-60
2023/06/05 06:25:51;;;;;;;1.17;0.80;;;;;;;14.23;49.06;99270.75;5048127;28;21256;-59
2023/06/05 06:28:25;;;;;;;0.83;0.50;;;;;;;14.50;47.89;99267.72;5058719;28;20359;-60
2023/06/05 06:30:56;;;;;;;3.20;0.60;;;;;;;14.65;49.60;99267.03;5047795;28;20615;-60
2023/06/05 06:33:27;;;;;;;0.87;0.70;;;;;;;14.69;46.80;99256.38;5059286;28;20270;-59
2023/06/05 06:35:58;;;;;;;0.97;0.70;;;;;;;14.53;48.35;99269.38;5030635;28;20301;-58
2023/06/05 06:38:31;;;;;;;2.00;0.63;;;;;;;14.63;48.89;99271.50;5038357;28;21103;-58
2023/06/05 06:41:02;;;;;;;3.63;0.87;;;;;;;14.71;46.55;99275.56;5057572;28;20389;-61
2023/06/05 06:43:34;;;;;;;1.27;0.50;;;;;;;14.83;47.40;99275.78;5052679;28;20673;-58
2023/06/05 06:46:06;;;;;;;1.90;0.60;;;;;;;14.86;47.34;99280.03;5062799;28;20282;-59
2023/06/05 06:48:37;;;;;;;0.53;0.50;;;;;;;14.81;46.19;99282.06;5051788;28;20308;-63
2023/06/05 06:51:08;;;;;;;0.63;0.50;;;;;;;14.60;45.69;99274.31;5063385;28;20315;-60
2023/06/05 06:53:40;;;;;;;1.37;0.70;;;;;;;14.67;47.33;99274.81;5052916;28;20290;-59
2023/06/05 06:56:11;;;;;;;0.73;0.60;;;;;;;14.71;48.44;99280.81;5062097;28;20759;-59
2023/06/05 06:58:45;;;;;;;4.57;0.90;;;;;;;14.58;47.21;99264.78;5051676;28;20297;-59
2023/06/05 07:01:19;;;;;;;2.03;0.70;;;;;;;14.49;46.64;99271.28;5062361;28;20290;-60
2023/06/05 07:03:50;;;;;;;3.80;0.60;;;;;;;14.50;47.00;99275.59;5050588;28;20884;-62
2023/06/05 07:06:22;;;;;;;0.50;0.50;;;;;;;14.43;48.02;99282.13;5062502;28;20833;-61
2023/06/05 07:08:53;;;;;;;2.40;0.50;;;;;;;14.36;48.13;99285.97;5052350;28;20294;-62
2023/06/05 07:11:25;;;;;;;1.13;0.47;;;;;;;14.26;46.55;99277.66;5062371;28;20274;-61
2023/06/05 07:13:58;;;;;;;1.30;0.50;;;;;;;14.20;47.93;99276.16;5051062;28;20286;-60
2023/06/05 07:16:29;;;;;;;0.97;0.67;;;;;;;14.06;48.37;99289.09;5061669;28;20294;-59
2023/06/05 07:19:00;;;;;;;2.00;0.60;;;;;;;13.89;48.05;99281.13;5027748;28;20279;-59
2023/06/05 07:21:34;;;;;;;1.33;0.57;;;;;;;13.82;48.92;99291.91;5045403;28;20348;-60
2023/06/05 07:24:05;;;;;;;1.87;0.50;;;;;;;13.92;49.63;99286.25;5052997;28;20355;-62
2023/06/05 07:26:36;;;;;;;4.07;0.77;;;;;;;13.98;48.62;99292.06;5042021;28;20753;-62
2023/06/05 07:29:08;;;;;;;0.50;0.50;;;;;;;13.97;48.09;99276.38;5052816;28;20805;-60
2023/06/05 07:31:39;;;;;;;2.00;0.50;;;;;;;14.02;48.33;99290.16;5041891;28;20767;-59
2023/06/05 07:34:12;;;;;;;1.70;0.43;;;;;;;14.06;48.11;99293.50;5051884;28;20314;-60
2023/06/05 07:36:43;;;;;;;3.43;1.17;;;;;;;14.10;49.04;99295.03;5041952;28;20297;-60
2023/06/05 07:39:14;;;;;;;1.87;0.80;;;;;;;14.15;48.35;99283.41;5053215;28;20800;-64
2023/06/05 07:41:45;;;;;;;1.10;0.60;;;;;;;14.19;47.63;99295.47;5041390;28;20294;-60
2023/06/05 07:44:21;;;;;;;1.55;0.70;;;;;;;14.04;47.04;99267.28;5051987;28;20294;-60
2023/06/05 07:46:52;;;;;;;6.27;0.73;;;;;;;14.17;49.29;99292.06;5033380;28;20122;-62
2023/06/05 07:49:24;;;;;;;3.65;0.75;;;;;;;14.34;49.95;99287.81;5043658;28;20526;-60
2023/06/05 07:51:55;;;;;;;4.63;0.87;;;;;;;14.41;49.26;99289.22;5031789;28;20048;-63
2023/06/05 07:54:26;;;;;;;1.93;0.67;;;;;;;14.27;47.37;99294.25;5041669;28;20321;-62
2023/06/05 07:56:58;;;;;;;2.00;0.50;;;;;;;14.23;48.40;99291.78;5029602;28;20337;-60
2023/06/05 07:59:32;;;;;;;1.27;0.60;;;;;;;14.22;48.30;99300.56;5048508;28;20294;-62
2023/06/05 08:02:05;;;;;;;2.20;0.50;;;;;;;14.35;47.46;99297.38;5051797;28;20289;-61
2023/06/05 08:04:36;;;;;;;1.07;0.60;;;;;;;14.27;47.38;99297.75;5041163;28;20295;-60
2023/06/05 08:07:07;;;;;;;0.77;0.67;;;;;;;14.33;48.36;99307.13;5051806;28;20769;-61
2023/06/05 08:09:38;;;;;;;0.47;0.47;;;;;;;14.26;48.29;99296.03;5041486;28;20320;-62
2023/06/05 08:12:11;;;;;;;2.70;0.60;;;;;;;14.18;47.08;99309.53;5052162;28;20437;-60
2023/06/05 08:14:43;;;;;;;1.37;0.67;;;;;;;14.12;48.82;99304.56;5048189;28;20297;-61
2023/06/05 08:17:14;;;;;;;3.13;0.60;;;;;;;14.12;47.70;99320.31;5061059;28;20275;-61
2023/06/05 08:19:45;;;;;;;7.00;0.90;;;;;;;14.20;48.05;99327.84;5050384;28;20282;-60
2023/06/05 08:22:16;;;;;;;0.93;0.60;;;;;;;14.17;47.56;99323.59;5061320;28;20356;-60
2023/06/05 08:25:07;;;;;;;5.70;0.70;;;;;;;14.18;47.86;99325.31;5037934;28;20391;-59
2023/06/05 08:27:52;;;;;;;2.57;0.80;;;;;;;14.21;48.08;99322.53;5038612;28;20286;-60
2023/06/05 08:30:27;;;;;;;2.92;0.63;;;;;;;14.33;48.28;99312.38;5060522;28;20278;-60
2023/06/05 08:33:03;;;;;;;3.40;0.70;;;;;;;14.31;46.94;99314.22;5044380;28;20055;-61
2023/06/05 08:35:35;;;;;;;1.10;0.60;;;;;;;14.13;47.51;99308.91;5049991;28;20282;-59
2023/06/05 08:38:07;;;;;;;5.37;0.87;;;;;;;14.05;47.16;99318.88;5060498;28;20282;-62
2023/06/05 08:40:38;;;;;;;3.97;0.60;;;;;;;14.14;48.57;99313.22;5049929;28;20339;-62
2023/06/05 08:43:10;;;;;;;1.40;0.60;;;;;;;14.27;49.04;99317.91;5060545;28;20772;-60
2023/06/05 08:45:42;;;;;;;2.83;0.77;;;;;;;14.34;48.35;99320.19;5050386;28;20374;-61
2023/06/05 08:48:19;;;;;;;0.90;0.63;;;;;;;14.38;48.69;99331.41;5060897;28;20294;-61
2023/06/05 08:50:54;;;;;;;2.47;0.73;;;;;;;14.32;49.47;99308.03;5027305;28;20303;-62
2023/06/05 08:53:27;;;;;;;1.30;0.50;;;;;;;14.52;48.54;99334.22;5057791;28;20933;-62
2023/06/05 08:55:59;;;;;;;0.83;0.40;;;;;;;14.39;47.19;99338.38;5020794;28;20284;-60
2023/06/05 08:58:31;;;;;;;1.60;0.70;;;;;;;14.38;47.93;99352.44;5025373;28;20283;-60
2023/06/05 09:01:06;;;;;;;2.47;0.52;;;;;;;14.33;49.11;99312.38;5031322;28;20310;-62
2023/06/05 09:03:44;;;;;;;1.37;0.53;;;;;;;14.67;47.74;99349.28;5021954;28;20044;-60
2023/06/05 09:06:18;;;;;;;2.07;0.97;;;;;;;14.83;47.25;99364.38;5031392;28;20291;-62
2023/06/05 09:08:52;;;;;;;2.70;0.63;;;;;;;14.64;47.27;99359.13;5021305;28;20299;-62
2023/06/05 09:11:27;;;;;;;2.77;0.70;;;;;;;14.74;49.38;99354.28;5031560;28;20392;-63
2023/06/05 09:14:04;;;;;;;4.13;1.00;;;;;;;14.60;49.62;99337.41;5020088;28;20908;-60
2023/06/05 09:16:43;;;;;;;3.03;1.63;;;;;;;14.85;50.86;99362.50;5020604;28;20295;-62
2023/06/05 09:19:27;;;;;;;3.67;0.87;;;;;;;14.80;50.83;99364.50;5030939;28;20286;-63
2023/06/05 09:21:59;;;;;;;1.33;0.80;;;;;;;14.78;50.62;99371.63;5020706;28;20349;-61
2023/06/05 09:24:31;;;;;;;10.70;5.87;;;;;;;14.77;51.55;99367.28;5023415;28;20300;-62
2023/06/05 09:27:03;;;;;;;4.23;1.93;;;;;;;14.73;51.21;99360.47;5031327;28;20628;-61
2023/06/05 09:29:36;;;;;;;2.63;1.03;;;;;;;14.84;51.82;99376.56;5021559;28;20906;-61
2023/06/05 09:32:19;;;;;;;4.70;1.20;;;;;;;14.87;51.35;99376.41;5030706;28;20275;-62
2023/06/05 09:35:00;;;;;;;2.40;0.90;;;;;;;14.84;51.57;99376.56;5017341;28;20325;-62
2023/06/05 09:37:38;;;;;;;1.40;0.65;;;;;;;14.74;51.64;99388.47;5020603;28;20582;-62
2023/06/05 09:40:16;;;;;;;2.53;1.17;;;;;;;14.70;52.08;99379.84;5031323;28;20063;-59
2023/06/05 09:42:51;;;;;;;2.45;1.38;;;;;;;14.52;51.89;99371.03;5020743;28;21288;-60
2023/06/05 09:45:59;;;;;;;3.53;1.67;;;;;;;14.48;53.51;99389.63;5030754;28;20145;-60
2023/06/05 09:48:32;;;;;;;3.20;1.00;;;;;;;14.37;53.73;99377.00;4983979;28;20085;-64
2023/06/05 09:51:14;;;;;;;1.43;0.70;;;;;;;14.22;55.78;99384.66;4987954;28;20777;-62
2023/06/05 09:53:51;;;;;;;3.00;1.10;;;;;;;13.92;56.44;99344.84;4985638;28;20394;-62
2023/06/05 09:56:24;;;;;;;2.47;1.00;;;;;;;14.19;56.41;99403.19;4995465;28;20887;-60
2023/06/05 09:58:56;;;;;;;3.17;1.10;;;;;;;14.02;56.70;99382.06;4985459;28;20382;-61
2023/06/05 10:01:29;;;;;;;3.40;1.00;;;;;;;13.98;56.22;99396.28;4995872;28;20303;-63
2023/06/05 10:04:08;;;;;;;2.13;0.90;;;;;;;13.46;57.36;99398.53;4985838;28;20284;-62
2023/06/05 10:06:44;;;;;;;9.80;4.03;;;;;;;12.82;58.39;99384.44;4982859;28;20294;-61
2023/06/05 10:09:17;;;;;;;14.63;6.57;;;;;;;12.56;59.36;99405.59;4977321;28;20342;-62
2023/06/05 10:11:51;;;;;;;10.83;5.23;;;;;;;12.06;60.67;99362.91;4988838;28;20299;-62
2023/06/05 10:14:23;;;;;;;8.80;3.57;;;;;;;11.79;62.21;99362.09;5062290;28;20285;-62
2023/06/05 10:16:59;;;;;;;6.40;1.97;;;;;;;11.78;63.60;99407.50;5051445;28;20294;-62
2023/06/05 10:19:32;;;;;;;3.00;1.40;;;;;;;11.51;65.12;99414.53;5054934;28;20308;-61
2023/06/05 10:22:04;;;;;;;3.65;1.17;;;;;;;11.34;64.68;99415.09;5063025;28;20036;-61
2023/06/05 10:24:39;;;;;;;6.05;1.23;;;;;;;10.71;64.41;99362.22;5051484;28;20044;-61
2023/06/05 10:27:42;;;;;;;3.67;1.20;;;;;;;10.90;65.39;99432.19;5062453;28;20485;-62
2023/06/05 10:30:44;;;;;;;1.77;1.30;;;;;;;10.53;67.09;99441.13;5061861;28;20111;-62
2023/06/05 10:33:35;;;;;;;14.45;6.90;;;;;;;10.17;69.18;99443.03;5060393;28;20490;-60
2023/06/05 10:36:18;;;;;;;14.23;2.08;;;;;;;9.69;70.58;99433.88;5033434;28;20075;-63
2023/06/05 10:38:51;;;;;;;9.07;2.45;;;;;;;9.34;72.39;99458.22;5027621;28;20464;-63
2023/06/05 10:41:25;;;;;;;15.35;3.67;;;;;;;8.98;74.00;99456.44;5056315;28;20051;-64
2023/06/05 10:43:57;;;;;;;9.80;2.40;;;;;;;8.76;75.41;99463.00;5033493;28;20076;-63
2023/06/05 10:46:34;;;;;;;10.45;3.33;;;;;;;8.47;76.01;99448.88;5032680;28;20036;-62
2023/06/05 10:49:11;;;;;;;11.30;3.30;;;;;;;7.59;77.39;99353.47;5029282;28;20064;-64
2023/06/05 10:51:46;;;;;;;8.13;2.50;;;;;;;8.02;78.35;99461.03;5031485;28;20048;-62
2023/06/05 10:54:59;;;;;;;11.50;3.17;;;;;;;7.93;79.33;99464.63;5058262;28;20048;-62
2023/06/05 10:58:10;;;;;;;3.95;1.20;;;;;;;7.90;80.03;99462.09;5039062;28;20056;-62
2023/06/05 11:01:22;;;;;;;3.58;1.30;;;;;;;8.03;80.21;99467.94;5040865;28;20378;-62
2023/06/05 11:04:00;;;;;;;;;;;;;;;7.84;79.94;99476.09;5027795;28;20040;-62
2023/06/05 11:06:32;;;;;;;5.72;0.90;;;;;;;7.72;80.13;99477.16;5042709;28;19939;-62
2023/06/05 11:09:16;;;;;;;10.80;2.53;;;;;;;7.65;80.66;99488.53;5052499;28;20053;-63
2023/06/05 11:12:04;;;;;;;8.18;2.22;;;;;;;7.56;81.32;99488.69;5041898;28;20049;-63
2023/06/05 11:14:59;;;;;;;9.93;2.42;;;;;;;7.12;81.62;99439.16;5041661;28;20117;-61
2023/06/05 11:17:58;;;;;;;2.85;1.10;;;;;;;7.19;82.42;99478.88;5042951;28;20109;-62
2023/06/05 11:24:46;;;;;;;8.30;2.40;;;;;;;6.97;84.26;99487.88;5051385;28;20382;-62
2023/06/05 11:27:59;;;;;;;8.07;2.25;;;;;;;6.85;84.72;99484.56;5061706;28;20044;-63
2023/06/05 11:30:46;;;;;;;6.38;2.33;;;;;;;6.72;85.38;99472.63;5023823;28;20051;-62
2023/06/05 11:33:31;;;;;;;8.27;2.92;;;;;;;6.83;84.89;99491.50;5061237;28;20055;-62
2023/06/05 11:36:09;;;;;;;21.58;12.63;;;;;;;6.01;85.35;99364.53;5052396;28;20063;-63
2023/06/05 11:38:41;;;;;;;15.90;9.43;;;;;;;6.59;85.55;99452.88;5050507;28;20044;-62
2023/06/05 11:41:18;;;;;;;16.92;6.20;;;;;;;6.56;85.01;99456.38;5061084;28;20058;-63
2023/06/05 11:43:50;;;;;;;43.67;15.27;;;;;;;6.66;85.49;99498.66;5050668;28;20549;-61
2023/06/05 11:46:41;;;;;;;19.90;7.10;;;;;;;6.58;86.14;99503.09;5061093;28;20048;-62
2023/06/05 11:49:28;;;;;;;5.95;1.65;;;;;;;6.56;86.90;99492.72;5051478;28;20044;-62
2023/06/05 11:52:02;;;;;;;2.72;1.15;;;;;;;6.59;86.95;99502.19;5051392;28;20131;-62
2023/06/05 11:54:52;;;;;;;2.20;1.42;;;;;;;5.68;87.01;99359.72;5050461;28;20044;-62
2023/06/05 11:57:53;;;;;;;10.88;4.53;;;;;;;6.45;87.04;99511.03;5056108;28;20047;-61
2023/06/05 12:00:28;;;;;;;6.55;2.28;;;;;;;6.30;87.17;99495.63;5041513;28;20459;-61
2023/06/05 12:03:15;;;;;;;2.13;1.40;;;;;;;6.43;88.04;99506.72;5041734;28;20125;-61
2023/06/05 12:05:52;;;;;;;4.60;1.60;;;;;;;6.39;88.28;99511.09;5042167;28;21086;-62
2023/06/05 12:08:41;;;;;;;5.95;2.08;;;;;;;6.47;88.41;99518.81;5051386;28;20064;-62
2023/06/05 12:11:34;;;;;;;3.58;2.10;;;;;;;6.35;87.64;99517.19;4969449;28;20069;-61